Dream Angel — 3EEV — position and weather

sailwx.info

Track history (hours):
 
Tides and Currents Weather Stations Pressure Air Temp Water Temp Dewpoint Dewpoint Depression Visibility Wind Speed Wind Dir Waves Ship Positions

Dream Angel

Last reported at 2016-Dec-03 23:12 UTC. Time now 2016-Dec-04 04:00 UTC.
Position N 38°58' E 117°50'.

Length 187 m; draft 6.8 m.

Type: Cargo ship. MMSI: 371820000.

Date/timePositionNaut miles runAvg speedWind from/ knotsBaromVisibWave heightAir tempDewpointWater temp
2016-Dec-03 23:12N 38°58' E 117°50'3 0.8
2016-Dec-03 19:24N 38°59' E 117°47'0 0.0
2016-Dec-03 18:30N 38°59' E 117°47'0 0.0
2016-Dec-03 17:30N 38°59' E 117°47'0 0.0
2016-Dec-03 16:30N 38°59' E 117°47'0 0.1
2016-Dec-03 11:13N 38°59' E 117°47'6 8.8
2016-Dec-03 10:33N 38°57' E 117°55'9 7.9
2016-Dec-03 09:28N 38°57' E 118°06'1 0.2
2016-Dec-03 06:19N 38°57' E 118°06'0 0.0
2016-Dec-03 04:25N 38°57' E 118°06'0 0.0
2016-Dec-03 03:25N 38°57' E 118°06'0 0.0
2016-Dec-03 02:13N 38°57' E 118°06'0 0.0
2016-Dec-02 10:31N 38°57' E 118°06'0 0.0
2016-Dec-02 09:31N 38°57' E 118°06'3 2.8
2016-Dec-02 08:33N 38°55' E 118°08'1612.9
2016-Dec-02 07:19N 38°50' E 118°28'1214.8
2016-Dec-02 06:31N 38°49' E 118°43'1817.2
2016-Dec-02 05:29N 38°48' E 119°06'1817.6
2016-Dec-02 04:29N 38°46' E 119°28'5517.1
2016-Dec-02 01:15N 38°39' E 120°38'1116.3
2016-Dec-02 00:33N 38°37' E 120°53'1313.3
2016-Dec-01 23:33N 38°31' E 121°07'  
2016-Nov-26 08:33N 35°02' E 139°41'1312.8
2016-Nov-26 07:33N 35°14' E 139°46'1212.0
2016-Nov-26 06:33N 35°25' E 139°42'2 2.1
2016-Nov-26 05:33N 35°27' E 139°41'0 0.0
2016-Nov-26 04:33N 35°27' E 139°41'0 0.0
2016-Nov-26 03:33N 35°27' E 139°41'0 0.0
2016-Nov-26 02:33N 35°27' E 139°41'0 0.0
2016-Nov-26 01:33N 35°27' E 139°41'2 1.7
2016-Nov-26 00:31N 35°25' E 139°41'0 0.0
2016-Nov-25 23:31N 35°25' E 139°41'0 0.0
2016-Nov-25 22:31N 35°25' E 139°41'0 0.0
2016-Nov-25 21:31N 35°25' E 139°41'0 0.0
2016-Nov-25 20:31N 35°25' E 139°41'0 0.0
2016-Nov-25 19:31N 35°25' E 139°41'0 0.0
2016-Nov-25 18:31N 35°25' E 139°41'0 0.0
2016-Nov-25 17:31N 35°25' E 139°41'0 0.0
2016-Nov-25 16:31N 35°25' E 139°41'0 0.0
2016-Nov-25 15:31N 35°25' E 139°41'0 0.0
2016-Nov-25 14:31N 35°25' E 139°41'0 0.0
2016-Nov-25 13:31N 35°25' E 139°41'0 0.0
2016-Nov-25 12:31N 35°25' E 139°41'0 0.0
2016-Nov-25 11:31N 35°25' E 139°41'0 0.0
2016-Nov-25 10:31N 35°25' E 139°41'0 0.0
2016-Nov-25 09:31N 35°25' E 139°41'0 0.0
2016-Nov-25 08:31N 35°25' E 139°41'0 0.0
2016-Nov-25 07:31N 35°25' E 139°41'0 0.0
2016-Nov-25 06:31N 35°25' E 139°41'5 5.3
2016-Nov-25 05:33N 35°21' E 139°43'1211.7
2016-Nov-25 04:33N 35°10' E 139°47'7 6.7
2016-Nov-25 03:33N 35°03' E 139°44'7 7.2
2016-Nov-25 02:33N 34°57' E 139°41'  
Track history (hours):
 
Tides and Currents Weather Stations Pressure Air Temp Water Temp Dewpoint Dewpoint Depression Visibility Wind Speed Wind Dir Waves Ship Positions

Dream Angel

Last reported at 2016-Dec-03 23:12 UTC. Time now 2016-Dec-04 04:00 UTC.
Position N 38°58' E 117°50'.

Length 187 m; draft 6.8 m.

Type: Cargo ship. MMSI: 371820000.

Date/timePositionNaut miles runAvg speedWind from/ knotsBaromVisibWave heightAir tempDewpointWater temp
2016-Dec-03 23:12N 38°58' E 117°50'3 0.8
2016-Dec-03 19:24N 38°59' E 117°47'0 0.0
2016-Dec-03 18:30N 38°59' E 117°47'0 0.0
2016-Dec-03 17:30N 38°59' E 117°47'0 0.0
2016-Dec-03 16:30N 38°59' E 117°47'0 0.1
2016-Dec-03 11:13N 38°59' E 117°47'6 8.8
2016-Dec-03 10:33N 38°57' E 117°55'9 7.9
2016-Dec-03 09:28N 38°57' E 118°06'1 0.2
2016-Dec-03 06:19N 38°57' E 118°06'0 0.0
2016-Dec-03 04:25N 38°57' E 118°06'0 0.0
2016-Dec-03 03:25N 38°57' E 118°06'0 0.0
2016-Dec-03 02:13N 38°57' E 118°06'0 0.0
2016-Dec-02 10:31N 38°57' E 118°06'0 0.0
2016-Dec-02 09:31N 38°57' E 118°06'3 2.8
2016-Dec-02 08:33N 38°55' E 118°08'1612.9
2016-Dec-02 07:19N 38°50' E 118°28'1214.8
2016-Dec-02 06:31N 38°49' E 118°43'1817.2
2016-Dec-02 05:29N 38°48' E 119°06'1817.6
2016-Dec-02 04:29N 38°46' E 119°28'5517.1
2016-Dec-02 01:15N 38°39' E 120°38'1116.3
2016-Dec-02 00:33N 38°37' E 120°53'1313.3
2016-Dec-01 23:33N 38°31' E 121°07'  
2016-Nov-26 08:33N 35°02' E 139°41'1312.8
2016-Nov-26 07:33N 35°14' E 139°46'1212.0
2016-Nov-26 06:33N 35°25' E 139°42'2 2.1
2016-Nov-26 05:33N 35°27' E 139°41'0 0.0
2016-Nov-26 04:33N 35°27' E 139°41'0 0.0
2016-Nov-26 03:33N 35°27' E 139°41'0 0.0
2016-Nov-26 02:33N 35°27' E 139°41'0 0.0
2016-Nov-26 01:33N 35°27' E 139°41'2 1.7
2016-Nov-26 00:31N 35°25' E 139°41'0 0.0
2016-Nov-25 23:31N 35°25' E 139°41'0 0.0
2016-Nov-25 22:31N 35°25' E 139°41'0 0.0
2016-Nov-25 21:31N 35°25' E 139°41'0 0.0
2016-Nov-25 20:31N 35°25' E 139°41'0 0.0
2016-Nov-25 19:31N 35°25' E 139°41'0 0.0
2016-Nov-25 18:31N 35°25' E 139°41'0 0.0
2016-Nov-25 17:31N 35°25' E 139°41'0 0.0
2016-Nov-25 16:31N 35°25' E 139°41'0 0.0
2016-Nov-25 15:31N 35°25' E 139°41'0 0.0
2016-Nov-25 14:31N 35°25' E 139°41'0 0.0
2016-Nov-25 13:31N 35°25' E 139°41'0 0.0
2016-Nov-25 12:31N 35°25' E 139°41'0 0.0
2016-Nov-25 11:31N 35°25' E 139°41'0 0.0
2016-Nov-25 10:31N 35°25' E 139°41'0 0.0
2016-Nov-25 09:31N 35°25' E 139°41'0 0.0
2016-Nov-25 08:31N 35°25' E 139°41'0 0.0
2016-Nov-25 07:31N 35°25' E 139°41'0 0.0
2016-Nov-25 06:31N 35°25' E 139°41'5 5.3
2016-Nov-25 05:33N 35°21' E 139°43'1211.7
2016-Nov-25 04:33N 35°10' E 139°47'7 6.7
2016-Nov-25 03:33N 35°03' E 139°44'7 7.2
2016-Nov-25 02:33N 34°57' E 139°41'  

Dump ship's entire track history